Time;durP1;ratioP1;P1;durP2;ratioP2;P2;SDS_P1;SDS_P2;PMS_P1;PMS_P2;Temp;Humidity;BMP_temperature;BMP_pressure;BME280_temperature;BME280_humidity;BME280_pressure;Samples;Min_cycle;Max_cycle;Signal;HPM_P1;HPM_P2
2021/04/04 00:01:46;;;;;;;12.32;6.00;;;;;;;;;;5070422;28;20076;-63
2021/04/04 00:04:28;;;;;;;11.43;5.40;;;;;;;;;;2880295;28;10002345;-62
2021/04/04 00:06:56;;;;;;;11.43;5.88;;;;;;;;;;2971031;28;10001558;-62
2021/04/04 00:09:24;;;;;;;11.00;5.45;;;;;;;;;;5069884;28;20058;-62
2021/04/04 00:11:51;;;;;;;10.68;4.57;;;;;;;;;;5070729;28;20056;-62
2021/04/04 00:14:19;;;;;;;11.27;4.97;;;;;;;;;;5070918;28;20110;-63
2021/04/04 00:16:46;;;;;;;9.82;4.88;;;;;;;;;;5070881;28;20398;-62
2021/04/04 00:19:14;;;;;;;12.70;4.93;;;;;;;;;;5070045;28;20080;-62
2021/04/04 00:21:41;;;;;;;10.15;5.85;;;;;;;;;;5070462;28;20040;-63
2021/04/04 00:24:10;;;;;;;9.13;4.18;;;;;;;;;;5070713;28;20056;-63
2021/04/04 00:26:38;;;;;;;11.73;5.38;;;;;;;;;;5066570;28;20077;-62
2021/04/04 00:29:06;;;;;;;7.97;4.15;;;;;;;;;;5064898;28;20044;-62
2021/04/04 00:31:34;;;;;;;13.02;5.00;;;;;;;;;;5070409;28;20139;-63
2021/04/04 00:34:01;;;;;;;10.93;4.95;;;;;;;;;;5070424;28;20048;-63
2021/04/04 00:36:28;;;;;;;13.23;5.57;;;;;;;;;;5071061;28;20099;-62
2021/04/04 00:38:56;;;;;;;14.27;5.10;;;;;;;;;;5070476;28;20482;-63
2021/04/04 00:41:24;;;;;;;9.80;5.47;;;;;;;;;;5069538;28;20094;-63
2021/04/04 00:43:51;;;;;;;11.27;5.53;;;;;;;;;;5070452;28;20076;-63
2021/04/04 00:46:19;;;;;;;15.77;4.43;;;;;;;;;;5070900;28;20121;-63
2021/04/04 00:48:46;;;;;;;11.43;4.82;;;;;;;;;;5069812;28;20049;-63
2021/04/04 00:51:14;;;;;;;11.82;4.90;;;;;;;;;;5070222;28;20131;-62
2021/04/04 00:53:41;;;;;;;14.60;5.10;;;;;;;;;;5070281;28;20132;-62
2021/04/04 00:56:09;;;;;;;11.80;4.38;;;;;;;;;;5070961;28;20135;-61
2021/04/04 00:58:37;;;;;;;10.98;4.80;;;;;;;;;;5069407;28;20139;-61
2021/04/04 01:01:04;;;;;;;9.48;4.82;;;;;;;;;;5070302;28;20140;-62
2021/04/04 01:03:32;;;;;;;14.07;5.70;;;;;;;;;;5102787;23;20082;-59
2021/04/04 01:06:02;;;;;;;13.63;4.75;;;;;;;;;;5108723;28;20079;-60
2021/04/04 01:08:30;;;;;;;9.25;5.53;;;;;;;;;;5109408;28;20101;-60
2021/04/04 01:10:58;;;;;;;9.80;5.85;;;;;;;;;;5101836;28;20084;-60
2021/04/04 01:13:27;;;;;;;11.43;5.78;;;;;;;;;;5102209;28;20117;-60
2021/04/04 01:15:58;;;;;;;12.13;5.03;;;;;;;;;;5093910;28;20249;-60
2021/04/04 01:18:29;;;;;;;9.57;4.80;;;;;;;;;;5107269;28;20040;-60
2021/04/04 01:20:59;;;;;;;13.90;5.57;;;;;;;;;;5100903;28;20052;-60
2021/04/04 01:23:41;;;;;;;10.95;5.00;;;;;;;;;;5113082;28;20397;-60
2021/04/04 01:26:10;;;;;;;11.85;5.75;;;;;;;;;;5095136;28;20048;-60
2021/04/04 01:28:41;;;;;;;9.00;5.20;;;;;;;;;;5108392;28;20142;-60
2021/04/04 01:31:09;;;;;;;9.77;5.47;;;;;;;;;;5097224;28;20044;-60
2021/04/04 01:33:37;;;;;;;13.68;5.07;;;;;;;;;;5103523;28;20455;-60
2021/04/04 01:36:06;;;;;;;15.63;6.57;;;;;;;;;;5114065;28;20079;-60
2021/04/04 01:38:38;;;;;;;12.15;5.45;;;;;;;;;;5104099;28;20093;-60
2021/04/04 01:41:08;;;;;;;14.00;5.63;;;;;;;;;;5113541;28;20044;-60
2021/04/04 01:43:35;;;;;;;10.68;5.47;;;;;;;;;;5102844;28;20062;-61
2021/04/04 01:46:04;;;;;;;10.85;5.10;;;;;;;;;;5098734;28;20047;-60
2021/04/04 01:48:32;;;;;;;13.30;5.82;;;;;;;;;;5103121;28;20534;-60
2021/04/04 01:51:01;;;;;;;9.40;5.80;;;;;;;;;;5107590;28;20043;-60
2021/04/04 01:53:29;;;;;;;9.60;5.60;;;;;;;;;;5099949;28;20072;-60
2021/04/04 01:55:56;;;;;;;11.35;5.95;;;;;;;;;;5113172;28;20502;-60
2021/04/04 01:58:24;;;;;;;11.90;5.53;;;;;;;;;;5111184;28;20158;-60
2021/04/04 02:00:51;;;;;;;12.63;5.85;;;;;;;;;;5112490;28;20134;-60
2021/04/04 02:03:22;;;;;;;10.93;5.50;;;;;;;;;;5111939;28;20047;-60
2021/04/04 02:05:51;;;;;;;14.55;6.50;;;;;;;;;;5100866;28;20076;-60
2021/04/04 02:08:19;;;;;;;11.75;5.50;;;;;;;;;;5104195;28;20130;-60
2021/04/04 02:10:46;;;;;;;13.00;5.28;;;;;;;;;;5106353;28;20072;-60
2021/04/04 02:13:14;;;;;;;13.00;5.32;;;;;;;;;;5105099;28;20182;-61
2021/04/04 02:15:42;;;;;;;12.25;5.43;;;;;;;;;;5112122;28;20086;-60
2021/04/04 02:18:10;;;;;;;13.98;5.68;;;;;;;;;;5109375;28;20492;-61
2021/04/04 02:20:39;;;;;;;15.23;5.35;;;;;;;;;;5111705;28;20130;-60
2021/04/04 02:23:07;;;;;;;11.77;5.57;;;;;;;;;;5106915;28;20040;-60
2021/04/04 02:25:35;;;;;;;9.77;5.43;;;;;;;;;;5112910;28;20130;-60
2021/04/04 02:28:03;;;;;;;10.90;5.30;;;;;;;;;;5107627;28;20044;-61
2021/04/04 02:30:30;;;;;;;17.02;5.72;;;;;;;;;;5105503;28;20075;-60
2021/04/04 02:33:00;;;;;;;17.38;6.22;;;;;;;;;;5104305;28;20559;-61
2021/04/04 02:35:29;;;;;;;11.18;4.93;;;;;;;;;;5098174;28;20082;-60
2021/04/04 02:38:00;;;;;;;8.90;5.10;;;;;;;;;;5107177;28;20048;-60
2021/04/04 02:40:27;;;;;;;10.27;5.32;;;;;;;;;;5112046;28;20483;-61
2021/04/04 02:42:55;;;;;;;12.30;5.40;;;;;;;;;;5112247;28;20131;-60
2021/04/04 02:45:24;;;;;;;14.38;6.10;;;;;;;;;;5101132;28;20156;-61
2021/04/04 02:47:56;;;;;;;12.05;5.18;;;;;;;;;;5105714;28;20131;-60
2021/04/04 02:50:26;;;;;;;9.00;4.72;;;;;;;;;;5095484;28;20140;-60
2021/04/04 02:52:54;;;;;;;12.98;5.40;;;;;;;;;;5111842;28;20474;-60
2021/04/04 02:55:23;;;;;;;15.25;5.38;;;;;;;;;;5112909;28;20043;-60
2021/04/04 02:57:51;;;;;;;12.70;6.00;;;;;;;;;;5106604;28;20090;-60
2021/04/04 03:00:20;;;;;;;10.27;5.00;;;;;;;;;;5103997;28;20134;-60
2021/04/04 03:02:48;;;;;;;13.55;5.32;;;;;;;;;;5103187;28;20056;-60
2021/04/04 03:05:16;;;;;;;12.52;5.45;;;;;;;;;;5112330;28;20162;-60
2021/04/04 03:07:44;;;;;;;10.85;5.10;;;;;;;;;;5106587;28;20506;-60
2021/04/04 03:10:12;;;;;;;12.30;6.20;;;;;;;;;;5109449;28;20047;-60
2021/04/04 03:12:41;;;;;;;12.27;5.38;;;;;;;;;;5111742;28;20118;-60
2021/04/04 03:15:10;;;;;;;15.35;5.20;;;;;;;;;;5111477;28;20074;-60
2021/04/04 03:17:39;;;;;;;13.52;5.65;;;;;;;;;;5109032;28;20071;-60
2021/04/04 03:20:08;;;;;;;9.93;4.80;;;;;;;;;;5111092;28;20122;-60
2021/04/04 03:22:36;;;;;;;9.23;4.60;;;;;;;;;;5109125;28;20114;-60
2021/04/04 03:25:04;;;;;;;10.13;5.47;;;;;;;;;;5110680;28;21286;-61
2021/04/04 03:27:32;;;;;;;13.80;5.63;;;;;;;;;;5109812;28;20134;-60
2021/04/04 03:30:01;;;;;;;10.63;5.15;;;;;;;;;;5110330;28;20073;-60
2021/04/04 03:32:28;;;;;;;10.73;4.72;;;;;;;;;;5098435;28;20040;-60
2021/04/04 03:34:55;;;;;;;12.90;5.70;;;;;;;;;;5109848;28;20044;-60
2021/04/04 03:37:24;;;;;;;8.35;5.10;;;;;;;;;;5103221;28;20075;-61
2021/04/04 03:39:51;;;;;;;14.60;5.43;;;;;;;;;;5110185;28;20124;-60
2021/04/04 03:42:19;;;;;;;10.10;5.30;;;;;;;;;;5104705;28;20131;-61
2021/04/04 03:44:46;;;;;;;12.23;4.80;;;;;;;;;;5101184;28;20119;-60
2021/04/04 03:47:15;;;;;;;13.98;5.28;;;;;;;;;;5098244;28;20517;-60
2021/04/04 03:49:43;;;;;;;12.35;5.43;;;;;;;;;;5099798;28;20051;-60
2021/04/04 03:52:11;;;;;;;10.80;5.20;;;;;;;;;;5110498;28;20079;-60
2021/04/04 03:54:38;;;;;;;8.93;4.80;;;;;;;;;;5110988;28;20050;-60
2021/04/04 03:57:06;;;;;;;11.40;5.45;;;;;;;;;;5109751;28;20078;-60
2021/04/04 03:59:34;;;;;;;12.25;6.07;;;;;;;;;;5107756;27;20110;-60
2021/04/04 04:02:02;;;;;;;10.73;4.90;;;;;;;;;;5107336;28;20123;-59
2021/04/04 04:04:31;;;;;;;9.57;5.28;;;;;;;;;;5109830;28;20102;-60
2021/04/04 04:06:58;;;;;;;11.38;5.50;;;;;;;;;;5110424;28;20081;-60
2021/04/04 04:09:27;;;;;;;10.68;5.32;;;;;;;;;;5097000;28;20234;-61
2021/04/04 04:11:54;;;;;;;12.52;5.38;;;;;;;;;;5103490;28;20460;-60
2021/04/04 04:14:22;;;;;;;11.75;5.28;;;;;;;;;;5101590;28;20094;-60
2021/04/04 04:16:50;;;;;;;11.52;5.28;;;;;;;;;;5091642;28;20101;-60
2021/04/04 04:19:18;;;;;;;12.40;5.13;;;;;;;;;;5104138;28;20067;-60
2021/04/04 04:21:47;;;;;;;11.23;5.20;;;;;;;;;;5110582;28;20048;-60
2021/04/04 04:24:15;;;;;;;10.35;5.20;;;;;;;;;;5111217;28;20154;-60
2021/04/04 04:26:43;;;;;;;9.82;5.47;;;;;;;;;;5106907;28;20083;-64
2021/04/04 04:29:11;;;;;;;13.55;5.20;;;;;;;;;;5110870;28;20043;-60
2021/04/04 04:31:41;;;;;;;13.43;4.57;;;;;;;;;;5109780;28;20044;-60
2021/04/04 04:34:10;;;;;;;11.80;5.05;;;;;;;;;;5101153;28;20135;-60
2021/04/04 04:36:38;;;;;;;9.30;4.90;;;;;;;;;;5107145;28;20455;-61
2021/04/04 04:39:07;;;;;;;14.52;5.70;;;;;;;;;;5110065;28;20047;-61
2021/04/04 04:41:36;;;;;;;13.32;5.28;;;;;;;;;;5100866;28;20105;-61
2021/04/04 04:44:05;;;;;;;11.82;5.75;;;;;;;;;;5111087;28;20530;-61
2021/04/04 04:46:33;;;;;;;11.18;5.13;;;;;;;;;;5102267;28;20040;-61
2021/04/04 04:49:01;;;;;;;9.88;4.97;;;;;;;;;;5101803;28;20073;-61
2021/04/04 04:51:29;;;;;;;10.38;5.50;;;;;;;;;;5106820;28;20052;-62
2021/04/04 04:53:57;;;;;;;12.02;5.18;;;;;;;;;;5113555;28;20112;-62
2021/04/04 04:56:26;;;;;;;13.10;5.07;;;;;;;;;;5100019;28;20142;-62
2021/04/04 04:58:54;;;;;;;10.07;4.75;;;;;;;;;;5097998;28;20135;-61
2021/04/04 05:01:24;;;;;;;10.15;5.30;;;;;;;;;;5112262;28;20083;-62
2021/04/04 05:03:52;;;;;;;11.23;5.15;;;;;;;;;;5109565;28;20083;-61
2021/04/04 05:06:19;;;;;;;10.98;5.78;;;;;;;;;;5112197;28;20039;-61
2021/04/04 05:08:47;;;;;;;12.48;5.22;;;;;;;;;;5113867;28;20095;-61
2021/04/04 05:11:16;;;;;;;12.80;5.63;;;;;;;;;;5113111;28;20150;-61
2021/04/04 05:13:44;;;;;;;10.95;5.53;;;;;;;;;;5114274;28;20134;-59
2021/04/04 05:16:11;;;;;;;10.70;5.53;;;;;;;;;;5108238;28;20043;-59
2021/04/04 05:18:39;;;;;;;17.15;7.60;;;;;;;;;;5109998;28;20105;-60
2021/04/04 05:21:06;;;;;;;15.13;7.10;;;;;;;;;;5114650;28;20098;-61
2021/04/04 05:23:34;;;;;;;12.60;7.05;;;;;;;;;;5100371;28;20074;-60
2021/04/04 05:26:02;;;;;;;15.50;7.63;;;;;;;;;;5109106;28;20452;-60
2021/04/04 05:28:30;;;;;;;14.40;7.20;;;;;;;;;;5102610;28;20044;-60
2021/04/04 05:31:02;;;;;;;15.18;6.38;;;;;;;;;;5099411;28;20055;-61
2021/04/04 05:33:30;;;;;;;12.75;6.20;;;;;;;;;;5100234;28;20067;-61
2021/04/04 05:36:02;;;;;;;13.45;6.18;;;;;;;;;;5095802;28;20056;-60
2021/04/04 05:38:29;;;;;;;15.10;5.93;;;;;;;;;;5108570;28;20054;-61
2021/04/04 05:40:57;;;;;;;14.00;6.50;;;;;;;;;;5109787;28;20055;-60
2021/04/04 05:43:25;;;;;;;11.05;5.82;;;;;;;;;;5105659;28;20352;-61
2021/04/04 05:45:56;;;;;;;12.90;5.57;;;;;;;;;;5103954;27;20130;-61
2021/04/04 05:48:35;;;;;;;10.88;5.50;;;;;;;;;;5103482;28;20054;-60
2021/04/04 05:51:10;;;;;;;13.20;5.82;;;;;;;;;;5105042;28;20048;-61
2021/04/04 05:53:42;;;;;;;11.00;5.72;;;;;;;;;;5102991;28;20043;-61
2021/04/04 05:56:14;;;;;;;16.15;6.55;;;;;;;;;;5098155;28;20059;-61
2021/04/04 05:58:46;;;;;;;11.95;6.18;;;;;;;;;;5088055;28;20072;-61
2021/04/04 06:01:24;;;;;;;14.73;6.03;;;;;;;;;;5092634;28;20190;-60
2021/04/04 06:04:03;;;;;;;14.18;6.03;;;;;;;;;;5104274;28;20060;-60
2021/04/04 06:06:56;;;;;;;13.93;5.75;;;;;;;;;;5103785;28;20048;-61
2021/04/04 06:09:31;;;;;;;15.27;6.53;;;;;;;;;;5093317;28;20109;-60
2021/04/04 06:11:58;;;;;;;;;;;;;;;;;;5105782;28;20092;-60
2021/04/04 06:14:28;;;;;;;11.43;5.85;;;;;;;;;;5106266;28;20291;-60
2021/04/04 06:16:58;;;;;;;13.23;6.63;;;;;;;;;;5111467;28;20089;-61
2021/04/04 06:19:33;;;;;;;14.40;6.10;;;;;;;;;;5100183;28;20069;-61
2021/04/04 06:22:06;;;;;;;14.57;6.30;;;;;;;;;;5113043;28;20052;-60
2021/04/04 06:24:34;;;;;;;14.38;6.95;;;;;;;;;;5114177;28;20086;-60
2021/04/04 06:27:07;;;;;;;14.10;7.07;;;;;;;;;;5111127;28;20054;-61
2021/04/04 06:29:37;;;;;;;11.95;7.25;;;;;;;;;;5106133;28;21754;-60
2021/04/04 06:32:07;;;;;;;16.13;6.80;;;;;;;;;;5102088;28;20075;-61
2021/04/04 06:34:40;;;;;;;16.15;6.82;;;;;;;;;;5105748;28;20503;-61
2021/04/04 06:37:19;;;;;;;24.52;7.65;;;;;;;;;;5113447;28;20536;-62
2021/04/04 06:39:53;;;;;;;18.05;8.18;;;;;;;;;;5103961;28;20047;-61
2021/04/04 06:42:23;;;;;;;13.23;6.33;;;;;;;;;;5098295;28;20052;-61
2021/04/04 06:44:56;;;;;;;16.98;6.50;;;;;;;;;;5094101;28;20494;-61
2021/04/04 06:47:27;;;;;;;13.40;7.07;;;;;;;;;;5108046;28;20079;-61
2021/04/04 06:50:04;;;;;;;14.38;6.25;;;;;;;;;;5105841;28;20147;-61
2021/04/04 06:52:38;;;;;;;12.65;6.15;;;;;;;;;;5108335;28;20093;-62
2021/04/04 06:55:07;;;;;;;13.63;6.25;;;;;;;;;;5106985;28;20052;-60
2021/04/04 06:57:40;;;;;;;11.65;5.97;;;;;;;;;;5108758;28;20122;-60
2021/04/04 07:00:10;;;;;;;13.18;5.68;;;;;;;;;;5106708;28;20044;-59
2021/04/04 07:02:43;;;;;;;12.98;6.20;;;;;;;;;;5101206;28;20390;-61
2021/04/04 07:05:13;;;;;;;11.23;5.70;;;;;;;;;;5100942;28;20498;-61
2021/04/04 07:07:44;;;;;;;13.80;5.95;;;;;;;;;;5111611;28;20079;-60
2021/04/04 07:10:17;;;;;;;13.00;6.35;;;;;;;;;;5111191;28;20093;-60
2021/04/04 07:12:55;;;;;;;10.50;6.20;;;;;;;;;;5105374;28;20055;-61
2021/04/04 07:15:33;;;;;;;11.43;6.10;;;;;;;;;;5093927;28;20047;-61
2021/04/04 07:18:12;;;;;;;17.52;6.15;;;;;;;;;;5109679;28;20127;-60
2021/04/04 07:20:56;;;;;;;10.65;6.15;;;;;;;;;;5106095;27;20109;-59
2021/04/04 07:23:42;;;;;;;12.30;5.80;;;;;;;;;;5099969;28;20071;-60
2021/04/04 07:26:19;;;;;;;13.65;5.90;;;;;;;;;;5095177;28;20058;-60
2021/04/04 07:29:05;;;;;;;14.35;6.43;;;;;;;;;;5109940;28;20047;-61
2021/04/04 07:31:36;;;;;;;12.32;5.75;;;;;;;;;;5108927;28;20563;-60
2021/04/04 07:34:05;;;;;;;14.10;6.63;;;;;;;;;;5104432;27;20130;-60
2021/04/04 07:36:39;;;;;;;13.25;6.32;;;;;;;;;;5114664;27;20126;-61
2021/04/04 07:39:09;;;;;;;13.93;6.15;;;;;;;;;;5106352;28;20079;-61
2021/04/04 07:41:38;;;;;;;10.15;5.15;;;;;;;;;;5108612;28;20082;-61
2021/04/04 07:44:14;;;;;;;10.98;5.30;;;;;;;;;;5110219;28;20047;-61
2021/04/04 07:46:47;;;;;;;10.38;6.18;;;;;;;;;;5104730;28;20123;-62
2021/04/04 07:49:16;;;;;;;11.60;5.85;;;;;;;;;;5101634;28;20146;-61
2021/04/04 07:51:48;;;;;;;10.77;5.68;;;;;;;;;;5103351;28;20043;-61
2021/04/04 07:54:19;;;;;;;13.23;5.47;;;;;;;;;;5093539;28;20051;-61
2021/04/04 07:56:50;;;;;;;12.52;5.45;;;;;;;;;;5111342;28;20090;-61
2021/04/04 07:59:20;;;;;;;9.43;4.90;;;;;;;;;;5107423;28;20081;-61
2021/04/04 08:01:50;;;;;;;10.70;5.28;;;;;;;;;;5091270;28;20083;-62
2021/04/04 08:04:19;;;;;;;9.18;4.55;;;;;;;;;;5095601;28;20126;-61
2021/04/04 08:06:49;;;;;;;12.52;4.75;;;;;;;;;;5111093;28;20444;-62
2021/04/04 08:09:21;;;;;;;9.07;4.95;;;;;;;;;;5102141;28;20487;-61
2021/04/04 08:11:51;;;;;;;9.60;2.65;;;;;;;;;;5090516;28;20048;-62
2021/04/04 08:14:21;;;;;;;15.07;3.05;;;;;;;;;;5109806;28;20485;-61
2021/04/04 08:16:51;;;;;;;10.98;3.10;;;;;;;;;;5104305;28;20048;-61
2021/04/04 08:19:19;;;;;;;6.82;2.80;;;;;;;;;;5099078;28;20055;-62
2021/04/04 08:21:52;;;;;;;3.97;2.15;;;;;;;;;;5107622;28;20093;-62
2021/04/04 08:24:23;;;;;;;6.85;2.22;;;;;;;;;;5102150;28;20112;-62
2021/04/04 08:26:52;;;;;;;6.78;2.13;;;;;;;;;;5101249;28;20135;-61
2021/04/04 08:29:23;;;;;;;6.82;2.35;;;;;;;;;;5108428;28;20035;-61
2021/04/04 08:31:52;;;;;;;5.90;2.38;;;;;;;;;;5112094;28;20126;-62
2021/04/04 08:34:22;;;;;;;7.13;2.80;;;;;;;;;;5107888;28;20075;-62
2021/04/04 08:36:52;;;;;;;8.43;2.78;;;;;;;;;;5099678;28;20520;-62
2021/04/04 08:39:22;;;;;;;4.30;2.75;;;;;;;;;;5111680;28;20043;-62
2021/04/04 08:41:49;;;;;;;9.13;3.03;;;;;;;;;;5103347;28;20040;-62
2021/04/04 08:44:19;;;;;;;6.22;3.03;;;;;;;;;;5114438;28;20044;-62
2021/04/04 08:46:48;;;;;;;3.65;2.35;;;;;;;;;;5111895;28;20078;-62
2021/04/04 08:49:16;;;;;;;7.38;2.70;;;;;;;;;;5098878;28;20130;-62
2021/04/04 08:51:45;;;;;;;5.40;2.80;;;;;;;;;;5112504;28;20052;-62
2021/04/04 08:54:18;;;;;;;7.22;2.70;;;;;;;;;;5106759;28;20047;-62
2021/04/04 08:56:47;;;;;;;5.88;2.33;;;;;;;;;;5109959;28;20083;-60
2021/04/04 08:59:16;;;;;;;7.30;2.80;;;;;;;;;;5104532;28;20499;-61
2021/04/04 09:01:46;;;;;;;4.45;2.63;;;;;;;;;;5106706;28;20048;-62
2021/04/04 09:04:13;;;;;;;8.60;2.67;;;;;;;;;;5111342;28;20124;-62
2021/04/04 09:06:41;;;;;;;4.57;2.50;;;;;;;;;;5094014;28;20118;-62
2021/04/04 09:09:19;;;;;;;4.32;2.60;;;;;;;;;;5103603;28;20588;-62
2021/04/04 09:11:48;;;;;;;5.38;2.47;;;;;;;;;;5103665;28;20043;-62
2021/04/04 09:14:16;;;;;;;6.75;2.70;;;;;;;;;;5112227;28;20498;-61
2021/04/04 09:16:51;;;;;;;8.68;3.10;;;;;;;;;;5112725;28;20055;-61
2021/04/04 09:19:18;;;;;;;;;;;;;;;;;;5109248;28;20048;-61
2021/04/04 09:21:49;;;;;;;7.63;2.80;;;;;;;;;;5113421;28;20018;-61
2021/04/04 09:24:18;;;;;;;7.55;2.92;;;;;;;;;;5112138;28;20082;-62
2021/04/04 09:26:46;;;;;;;6.55;2.75;;;;;;;;;;5099122;28;20343;-61
2021/04/04 09:29:13;;;;;;;4.93;2.63;;;;;;;;;;5101685;28;20051;-61
2021/04/04 09:31:41;;;;;;;5.55;2.67;;;;;;;;;;5105234;28;20039;-61
2021/04/04 09:34:12;;;;;;;5.10;3.05;;;;;;;;;;5113983;28;20126;-61
2021/04/04 09:36:40;;;;;;;5.30;2.85;;;;;;;;;;5097342;28;20465;-61
2021/04/04 09:39:09;;;;;;;9.20;2.88;;;;;;;;;;5114410;27;20126;-61
2021/04/04 09:41:38;;;;;;;4.35;2.63;;;;;;;;;;5133779;27;20085;-61
2021/04/04 09:44:06;;;;;;;6.72;2.97;;;;;;;;;;5116423;27;20047;-61
2021/04/04 09:46:35;;;;;;;5.45;2.50;;;;;;;;;;5100497;28;20039;-62
2021/04/04 09:49:02;;;;;;;5.13;2.58;;;;;;;;;;5104730;28;20491;-61
2021/04/04 09:51:30;;;;;;;6.85;3.58;;;;;;;;;;5107041;28;20101;-61
2021/04/04 09:53:58;;;;;;;5.45;2.72;;;;;;;;;;5113265;28;20077;-61
2021/04/04 09:56:29;;;;;;;5.05;2.70;;;;;;;;;;5110678;28;20447;-61
2021/04/04 09:58:57;;;;;;;6.68;2.70;;;;;;;;;;5111674;28;20172;-61
2021/04/04 10:01:25;;;;;;;5.57;2.80;;;;;;;;;;5108714;28;20467;-61
2021/04/04 10:04:00;;;;;;;6.75;2.50;;;;;;;;;;5112376;28;20059;-61
2021/04/04 10:06:28;;;;;;;6.63;3.60;;;;;;;;;;5112064;28;20074;-60
2021/04/04 10:08:56;;;;;;;5.53;2.83;;;;;;;;;;5106119;27;20102;-60
2021/04/04 10:11:24;;;;;;;5.85;2.70;;;;;;;;;;5110133;28;20051;-61
2021/04/04 10:13:51;;;;;;;6.57;3.00;;;;;;;;;;5107777;27;20108;-61
2021/04/04 10:16:21;;;;;;;3.15;2.00;;;;;;;;;;5102102;28;20143;-60
2021/04/04 10:19:04;;;;;;;4.93;2.80;;;;;;;;;;5091298;28;20487;-61
2021/04/04 10:21:32;;;;;;;5.68;2.63;;;;;;;;;;5108387;28;20486;-61
2021/04/04 10:24:00;;;;;;;5.22;2.72;;;;;;;;;;5111239;28;20093;-61
2021/04/04 10:26:27;;;;;;;4.28;2.90;;;;;;;;;;5111569;28;20085;-62
2021/04/04 10:29:00;;;;;;;6.90;3.08;;;;;;;;;;5099106;28;20591;-62
2021/04/04 10:31:45;;;;;;;4.88;2.42;;;;;;;;;;5112595;28;20105;-63
2021/04/04 10:34:12;;;;;;;6.38;2.67;;;;;;;;;;5112632;28;20135;-62
2021/04/04 10:36:40;;;;;;;4.88;2.50;;;;;;;;;;5113298;28;20116;-62
2021/04/04 10:39:20;;;;;;;4.57;2.22;;;;;;;;;;5112234;28;20096;-60
2021/04/04 10:41:47;;;;;;;5.18;2.65;;;;;;;;;;5095421;28;20048;-61
2021/04/04 10:44:21;;;;;;;5.32;2.40;;;;;;;;;;5099425;28;20098;-61
2021/04/04 10:46:49;;;;;;;5.57;2.80;;;;;;;;;;5110622;28;20126;-61
2021/04/04 10:49:16;;;;;;;6.68;2.70;;;;;;;;;;5108720;28;20426;-61
2021/04/04 10:51:44;;;;;;;3.92;2.13;;;;;;;;;;5108842;28;20881;-61
2021/04/04 10:54:11;;;;;;;6.97;2.70;;;;;;;;;;5109470;28;20142;-61
2021/04/04 10:56:39;;;;;;;4.63;2.40;;;;;;;;;;5106826;28;20438;-61
2021/04/04 10:59:07;;;;;;;5.45;2.50;;;;;;;;;;5102025;28;20147;-61
2021/04/04 11:01:34;;;;;;;5.57;2.30;;;;;;;;;;5107123;28;20051;-61
2021/04/04 11:04:03;;;;;;;5.63;2.70;;;;;;;;;;5105355;28;20528;-61
2021/04/04 11:06:30;;;;;;;5.10;2.42;;;;;;;;;;5103028;28;20134;-61
2021/04/04 11:08:58;;;;;;;4.63;2.17;;;;;;;;;;5107153;28;20130;-61
2021/04/04 11:11:25;;;;;;;4.68;2.60;;;;;;;;;;5099737;28;20790;-61
2021/04/04 11:13:54;;;;;;;5.18;2.70;;;;;;;;;;5111430;28;20150;-61
2021/04/04 11:16:25;;;;;;;5.28;2.50;;;;;;;;;;5106127;28;20186;-62
2021/04/04 11:18:54;;;;;;;5.75;2.45;;;;;;;;;;5102231;28;20603;-61
2021/04/04 11:21:25;;;;;;;4.40;2.50;;;;;;;;;;5110532;28;20128;-62
2021/04/04 11:23:53;;;;;;;7.25;2.72;;;;;;;;;;5110893;28;20052;-62
2021/04/04 11:26:24;;;;;;;4.57;2.65;;;;;;;;;;5109104;28;20164;-62
2021/04/04 11:29:10;;;;;;;4.53;2.45;;;;;;;;;;5108432;28;20101;-62
2021/04/04 11:31:38;;;;;;;5.63;2.55;;;;;;;;;;5093135;28;20403;-62
2021/04/04 11:34:25;;;;;;;5.85;2.40;;;;;;;;;;5106399;28;20055;-62
2021/04/04 11:36:53;;;;;;;3.90;2.53;;;;;;;;;;5106331;28;20083;-62
2021/04/04 11:39:21;;;;;;;5.72;3.03;;;;;;;;;;5110697;28;20578;-61
2021/04/04 11:41:49;;;;;;;5.38;2.60;;;;;;;;;;5108831;28;20071;-62
2021/04/04 11:44:17;;;;;;;5.00;2.40;;;;;;;;;;5110391;28;20040;-62
2021/04/04 11:46:51;;;;;;;7.72;2.45;;;;;;;;;;5104145;28;20074;-62
2021/04/04 11:49:39;;;;;;;5.50;2.60;;;;;;;;;;5107351;28;20075;-62
2021/04/04 11:52:25;;;;;;;3.88;2.42;;;;;;;;;;5097612;28;20127;-62
2021/04/04 11:54:55;;;;;;;5.30;2.20;;;;;;;;;;5102053;28;20530;-62
2021/04/04 11:57:23;;;;;;;4.30;2.35;;;;;;;;;;5095559;28;20071;-62
2021/04/04 11:59:51;;;;;;;4.53;2.67;;;;;;;;;;5104545;28;20152;-62
2021/04/04 12:02:19;;;;;;;5.80;2.30;;;;;;;;;;5106985;28;20125;-62
2021/04/04 12:04:59;;;;;;;5.20;2.42;;;;;;;;;;5108529;28;20307;-62
2021/04/04 12:07:26;;;;;;;6.18;2.72;;;;;;;;;;5106483;28;20131;-62
2021/04/04 12:09:56;;;;;;;3.90;2.47;;;;;;;;;;5107723;28;20062;-62
2021/04/04 12:12:23;;;;;;;5.15;2.40;;;;;;;;;;5104627;28;20162;-62
2021/04/04 12:14:52;;;;;;;3.75;2.22;;;;;;;;;;5098824;28;20063;-62
2021/04/04 12:17:21;;;;;;;8.77;2.83;;;;;;;;;;5108655;28;20508;-62
2021/04/04 12:19:49;;;;;;;4.82;2.25;;;;;;;;;;5108546;28;20082;-62
2021/04/04 12:22:17;;;;;;;4.13;2.25;;;;;;;;;;5108017;28;20130;-62
2021/04/04 12:24:45;;;;;;;4.97;2.42;;;;;;;;;;5109693;28;20047;-62
2021/04/04 12:27:14;;;;;;;6.30;3.03;;;;;;;;;;5103576;28;20044;-62
2021/04/04 12:29:43;;;;;;;7.03;2.60;;;;;;;;;;5106726;28;20048;-62
2021/04/04 12:32:11;;;;;;;4.53;2.83;;;;;;;;;;5109650;28;20461;-62
2021/04/04 12:34:41;;;;;;;4.50;2.80;;;;;;;;;;5109326;28;20539;-62
2021/04/04 12:37:12;;;;;;;5.32;2.55;;;;;;;;;;5093931;28;20114;-62
2021/04/04 12:39:49;;;;;;;4.72;2.88;;;;;;;;;;5090670;28;20109;-62
2021/04/04 12:42:18;;;;;;;5.65;2.90;;;;;;;;;;5097361;28;20052;-62
2021/04/04 12:44:47;;;;;;;4.90;3.00;;;;;;;;;;5101227;28;20135;-62
2021/04/04 12:47:16;;;;;;;6.00;2.92;;;;;;;;;;5105909;28;20075;-62
2021/04/04 12:49:44;;;;;;;4.45;2.50;;;;;;;;;;5109734;28;20086;-62
2021/04/04 12:52:11;;;;;;;7.05;2.65;;;;;;;;;;5106542;28;20525;-62
2021/04/04 12:54:39;;;;;;;6.95;3.17;;;;;;;;;;5107261;28;20127;-62
2021/04/04 12:57:06;;;;;;;5.32;2.78;;;;;;;;;;5103974;28;20486;-62
2021/04/04 12:59:35;;;;;;;5.85;2.95;;;;;;;;;;5109500;28;20383;-62
2021/04/04 13:02:03;;;;;;;5.30;2.78;;;;;;;;;;5095998;28;20512;-62
2021/04/04 13:04:31;;;;;;;5.82;2.75;;;;;;;;;;5107946;28;20043;-62
2021/04/04 13:06:58;;;;;;;6.45;2.47;;;;;;;;;;5091672;28;20044;-62
2021/04/04 13:09:25;;;;;;;7.90;2.90;;;;;;;;;;5100938;28;20056;-62
2021/04/04 13:11:53;;;;;;;5.63;2.42;;;;;;;;;;5101280;28;20145;-61
2021/04/04 13:14:27;;;;;;;7.32;2.30;;;;;;;;;;5108855;28;20047;-62
2021/04/04 13:16:58;;;;;;;4.35;2.40;;;;;;;;;;5111676;28;20498;-62
2021/04/04 13:19:26;;;;;;;5.65;2.50;;;;;;;;;;5093425;28;20087;-62
2021/04/04 13:21:54;;;;;;;4.80;3.20;;;;;;;;;;5105821;28;20048;-61
2021/04/04 13:24:23;;;;;;;6.82;2.67;;;;;;;;;;5109102;28;20150;-61
2021/04/04 13:26:52;;;;;;;4.95;2.80;;;;;;;;;;5107202;28;20498;-62
2021/04/04 13:29:20;;;;;;;6.25;2.70;;;;;;;;;;5110372;28;20043;-62
2021/04/04 13:31:51;;;;;;;5.90;2.78;;;;;;;;;;5099161;28;20051;-61
2021/04/04 13:34:20;;;;;;;8.00;3.00;;;;;;;;;;5107463;28;20047;-62
2021/04/04 13:36:56;;;;;;;3.05;2.40;;;;;;;;;;5105442;28;20074;-62
2021/04/04 13:39:27;;;;;;;5.88;2.75;;;;;;;;;;5089607;28;20432;-62
2021/04/04 13:41:55;;;;;;;6.00;2.75;;;;;;;;;;5110450;28;20047;-62
2021/04/04 13:44:40;;;;;;;3.85;2.47;;;;;;;;;;5112998;28;20050;-62
2021/04/04 13:47:07;;;;;;;5.35;2.72;;;;;;;;;;5106869;28;20043;-62
2021/04/04 13:49:36;;;;;;;4.03;2.50;;;;;;;;;;5112877;28;20091;-61
2021/04/04 13:52:10;;;;;;;5.25;2.15;;;;;;;;;;5106483;28;20051;-61
2021/04/04 13:54:38;;;;;;;5.82;2.97;;;;;;;;;;5096427;28;20072;-61
2021/04/04 13:57:06;;;;;;;7.70;3.13;;;;;;;;;;5108150;27;20098;-62
2021/04/04 13:59:34;;;;;;;4.47;2.40;;;;;;;;;;5106937;28;20040;-62
2021/04/04 14:02:04;;;;;;;5.78;2.67;;;;;;;;;;5103191;27;20052;-62
2021/04/04 14:04:32;;;;;;;3.75;2.22;;;;;;;;;;5098625;28;20551;-61
2021/04/04 14:07:01;;;;;;;4.28;2.63;;;;;;;;;;5110932;28;20077;-62
2021/04/04 14:09:30;;;;;;;5.45;2.80;;;;;;;;;;5107538;28;20147;-62
2021/04/04 14:11:57;;;;;;;4.78;2.75;;;;;;;;;;5109312;28;20563;-62
2021/04/04 14:14:25;;;;;;;5.97;3.08;;;;;;;;;;5108406;28;20483;-62
2021/04/04 14:16:53;;;;;;;3.47;2.33;;;;;;;;;;5108192;28;20158;-62
2021/04/04 14:19:21;;;;;;;6.47;2.40;;;;;;;;;;5103392;28;20047;-62
2021/04/04 14:21:48;;;;;;;5.07;3.03;;;;;;;;;;5109119;27;20051;-62
2021/04/04 14:24:16;;;;;;;7.20;2.70;;;;;;;;;;5092512;28;20189;-62
2021/04/04 14:26:44;;;;;;;4.40;2.53;;;;;;;;;;5107562;28;20051;-62
2021/04/04 14:29:13;;;;;;;5.97;2.88;;;;;;;;;;5104037;28;20059;-62
2021/04/04 14:31:40;;;;;;;5.93;2.97;;;;;;;;;;5096628;28;20043;-62
2021/04/04 14:34:09;;;;;;;6.00;2.72;;;;;;;;;;5107541;27;20043;-62
2021/04/04 14:36:38;;;;;;;6.28;2.83;;;;;;;;;;5110914;28;20051;-62
2021/04/04 14:39:06;;;;;;;8.00;3.03;;;;;;;;;;5111405;28;20462;-62
2021/04/04 14:41:35;;;;;;;6.78;2.47;;;;;;;;;;5110621;28;20136;-62
2021/04/04 14:44:13;;;;;;;8.43;2.38;;;;;;;;;;5111757;28;20051;-62
2021/04/04 14:46:40;;;;;;;4.20;2.47;;;;;;;;;;5111307;28;20116;-61
2021/04/04 14:49:08;;;;;;;5.00;2.83;;;;;;;;;;5109268;28;20571;-62
2021/04/04 14:51:36;;;;;;;5.03;2.40;;;;;;;;;;5100155;28;20052;-62
2021/04/04 14:54:10;;;;;;;4.63;2.85;;;;;;;;;;5102827;27;20079;-62